createdAt,value
2022-10-24T00:00:46.284Z,20.65
2022-10-24T00:03:20.125Z,20.51
2022-10-24T00:09:17.318Z,20.63
2022-10-24T00:11:54.525Z,20.62
2022-10-24T00:14:26.765Z,20.51
2022-10-24T00:17:12.016Z,20.63
2022-10-24T00:20:14.374Z,20.59
2022-10-24T00:22:48.127Z,20.62
2022-10-24T00:25:22.484Z,20.59
2022-10-24T00:32:22.194Z,20.60
2022-10-24T00:35:02.474Z,20.61
2022-10-24T00:37:32.545Z,20.60
2022-10-24T00:40:05.554Z,20.50
2022-10-24T00:42:35.114Z,20.59
2022-10-24T00:45:44.936Z,20.59
2022-10-24T00:48:26.964Z,20.59
2022-10-24T00:51:03.445Z,20.57
2022-10-24T00:53:37.515Z,20.57
2022-10-24T00:56:07.724Z,20.56
2022-10-24T00:58:41.074Z,20.55
2022-10-24T01:01:26.941Z,20.56
2022-10-24T01:03:56.594Z,20.53
2022-10-24T01:07:41.544Z,20.57
2022-10-24T01:10:46.624Z,20.56
2022-10-24T01:17:21.954Z,20.52
2022-10-24T01:20:25.247Z,20.50
2022-10-24T01:23:23.385Z,20.47
2022-10-24T01:26:11.306Z,20.45
2022-10-24T01:29:00.833Z,20.36
2022-10-24T01:31:43.024Z,20.40
2022-10-24T01:34:25.364Z,20.44
2022-10-24T01:37:01.345Z,20.42
2022-10-24T01:39:41.336Z,20.44
2022-10-24T01:42:17.834Z,20.46
2022-10-24T01:44:52.214Z,20.48
2022-10-24T01:47:40.834Z,20.47
2022-10-24T01:53:16.849Z,20.42
2022-10-24T01:55:47.284Z,20.42
2022-10-24T01:58:15.935Z,20.44
2022-10-24T02:00:49.225Z,20.43
2022-10-24T02:03:45.654Z,20.42
2022-10-24T02:06:18.584Z,20.41
2022-10-24T02:11:59.215Z,20.33
2022-10-24T02:14:36.608Z,20.37
2022-10-24T02:17:19.114Z,20.29
2022-10-24T02:19:55.744Z,20.36
2022-10-24T02:22:35.646Z,20.37
2022-10-24T02:25:12.655Z,20.36
2022-10-24T02:27:54.284Z,20.34
2022-10-24T02:30:39.814Z,20.32
2022-10-24T02:33:16.434Z,20.33
2022-10-24T02:36:02.384Z,20.31
2022-10-24T02:38:59.034Z,20.32
2022-10-24T02:41:37.606Z,20.31
2022-10-24T02:44:23.464Z,20.26
2022-10-24T02:47:01.785Z,20.29
2022-10-24T02:49:39.013Z,20.25
2022-10-24T02:52:12.198Z,20.23
2022-10-24T02:54:41.916Z,20.25
2022-10-24T02:57:27.113Z,20.16
2022-10-24T03:02:46.247Z,20.20
2022-10-24T03:05:28.174Z,20.18
2022-10-24T03:08:10.444Z,20.20
2022-10-24T03:10:39.004Z,20.14
2022-10-24T03:13:10.558Z,20.17
2022-10-24T03:15:40.113Z,20.13
2022-10-24T03:18:11.754Z,20.14
2022-10-24T03:20:45.654Z,20.16
2022-10-24T03:23:16.658Z,20.14
2022-10-24T03:25:50.413Z,20.15
2022-10-24T03:28:20.003Z,20.13
2022-10-24T03:30:48.524Z,20.09
2022-10-24T03:33:17.403Z,20.14
2022-10-24T03:35:45.974Z,20.10
2022-10-24T03:38:15.944Z,20.11
2022-10-24T03:43:18.016Z,20.09
2022-10-24T03:45:52.123Z,20.05
2022-10-24T03:48:29.733Z,20.08
2022-10-24T03:51:27.237Z,20.05
2022-10-24T03:54:49.245Z,20.05
2022-10-24T04:00:05.344Z,20.06
2022-10-24T04:02:57.263Z,20.03
2022-10-24T04:06:00.836Z,20.03
2022-10-24T04:08:35.554Z,20.03
2022-10-24T04:11:12.316Z,20.04
2022-10-24T04:16:38.975Z,20.01
2022-10-24T04:19:28.814Z,19.99
2022-10-24T04:21:58.754Z,19.98
2022-10-24T04:24:38.565Z,19.96
2022-10-24T04:27:19.274Z,19.94
2022-10-24T04:29:50.386Z,19.94
2022-10-24T04:32:28.004Z,19.93
2022-10-24T04:35:07.035Z,19.93
2022-10-24T04:37:35.735Z,19.91
2022-10-24T04:40:15.964Z,19.88
2022-10-24T04:42:49.315Z,19.89
2022-10-24T04:45:30.049Z,19.89
2022-10-24T04:47:58.478Z,19.88
2022-10-24T04:50:50.146Z,19.89
2022-10-24T04:53:38.205Z,19.85
2022-10-24T04:56:27.165Z,19.83
2022-10-24T04:59:10.586Z,19.85
2022-10-24T05:01:56.736Z,19.81
2022-10-24T05:04:36.965Z,19.83
2022-10-24T05:07:06.864Z,19.82
2022-10-24T05:09:47.831Z,19.82
2022-10-24T05:12:30.364Z,19.83
2022-10-24T05:15:09.671Z,19.80
2022-10-24T05:17:40.230Z,19.84
2022-10-24T05:20:10.155Z,19.80
2022-10-24T05:22:44.385Z,19.78
2022-10-24T05:25:22.040Z,19.77
2022-10-24T05:27:54.269Z,19.74
2022-10-24T05:30:51.770Z,19.72
2022-10-24T05:33:24.489Z,19.71
2022-10-24T05:35:54.200Z,19.71
2022-10-24T05:41:31.930Z,19.65
2022-10-24T05:44:01.320Z,19.66
2022-10-24T05:46:32.959Z,19.70
2022-10-24T05:49:08.520Z,19.65
2022-10-24T05:51:52.670Z,19.70
2022-10-24T05:54:33.262Z,19.71
2022-10-24T05:57:11.720Z,19.63
2022-10-24T05:59:43.270Z,19.68
2022-10-24T06:02:19.774Z,19.64
2022-10-24T06:04:50.535Z,19.73
2022-10-24T06:07:25.139Z,19.73
2022-10-24T06:09:54.680Z,19.73
2022-10-24T06:12:25.839Z,19.73
2022-10-24T06:14:58.802Z,19.63
2022-10-24T06:17:32.701Z,19.64
2022-10-24T06:20:01.849Z,19.53
2022-10-24T06:22:30.659Z,19.54
2022-10-24T06:25:10.301Z,19.58
2022-10-24T06:27:52.694Z,19.56
2022-10-24T06:30:21.591Z,19.59
2022-10-24T06:33:05.730Z,19.53
2022-10-24T06:35:35.343Z,19.59
2022-10-24T06:38:05.030Z,19.56
2022-10-24T06:40:35.981Z,19.55
2022-10-24T06:43:14.292Z,19.37
2022-10-24T06:45:50.367Z,19.60
2022-10-24T06:48:47.961Z,19.57
2022-10-24T06:51:42.820Z,19.58
2022-10-24T06:54:20.149Z,19.55
2022-10-24T06:56:57.220Z,19.58
2022-10-24T06:59:59.180Z,19.55
2022-10-24T07:02:29.390Z,19.59
2022-10-24T07:05:18.258Z,19.63
2022-10-24T07:08:06.802Z,19.62
2022-10-24T07:10:57.080Z,19.48
2022-10-24T07:13:54.248Z,19.44
2022-10-24T07:16:31.015Z,19.48
2022-10-24T07:19:17.270Z,19.43
2022-10-24T07:22:04.982Z,19.36
2022-10-24T07:24:50.431Z,19.47
2022-10-24T07:27:45.290Z,19.45
2022-10-24T07:30:40.490Z,19.47
2022-10-24T07:33:09.549Z,19.36
2022-10-24T07:35:57.550Z,19.44
2022-10-24T07:38:28.614Z,19.41
2022-10-24T07:40:57.299Z,19.48
2022-10-24T07:43:26.590Z,19.44
2022-10-24T07:45:55.443Z,19.27
2022-10-24T07:48:24.160Z,19.38
2022-10-24T07:50:52.851Z,19.32
2022-10-24T07:53:21.749Z,19.32
2022-10-24T07:55:51.770Z,19.43
2022-10-24T07:58:20.390Z,19.28
2022-10-24T08:00:49.244Z,19.37
2022-10-24T08:03:17.899Z,19.36
2022-10-24T08:05:46.682Z,19.21
2022-10-24T08:08:37.148Z,19.13
2022-10-24T08:11:10.852Z,19.22
2022-10-24T08:13:40.090Z,19.25
2022-10-24T08:16:11.080Z,19.20
2022-10-24T08:18:40.248Z,19.16
2022-10-24T08:21:11.251Z,19.15
2022-10-24T08:23:42.460Z,19.33
2022-10-24T08:26:18.470Z,19.20
2022-10-24T08:28:47.623Z,19.19
2022-10-24T08:31:19.943Z,19.33
2022-10-24T08:33:49.579Z,19.27
2022-10-24T08:36:23.163Z,19.36
2022-10-24T08:38:51.750Z,19.24
2022-10-24T08:41:30.770Z,19.38
2022-10-24T08:44:03.720Z,19.41
2022-10-24T08:46:49.270Z,19.19
2022-10-24T08:49:28.172Z,19.37
2022-10-24T08:52:00.780Z,19.29
2022-10-24T08:54:34.481Z,19.38
2022-10-24T08:57:05.021Z,19.68
2022-10-24T08:59:37.761Z,19.63
2022-10-24T09:02:17.332Z,19.47
2022-10-24T09:04:52.600Z,19.73
2022-10-24T09:09:58.970Z,19.66
2022-10-24T09:12:28.721Z,19.74
2022-10-24T09:15:00.881Z,19.47
2022-10-24T09:17:33.741Z,19.55
2022-10-24T09:20:06.552Z,19.55
2022-10-24T09:22:39.496Z,19.70
2022-10-24T09:25:16.970Z,19.55
2022-10-24T09:27:47.393Z,19.64
2022-10-24T09:30:19.570Z,19.62
2022-10-24T09:32:48.871Z,19.80
2022-10-24T09:35:20.802Z,19.64
2022-10-24T09:37:55.462Z,19.56
2022-10-24T09:40:26.391Z,19.66
2022-10-24T09:43:00.391Z,19.68
2022-10-24T09:45:39.510Z,19.53
2022-10-24T09:48:19.299Z,19.64
2022-10-24T09:50:50.312Z,19.55
2022-10-24T09:53:28.451Z,19.44
2022-10-24T09:56:00.290Z,19.48
2022-10-24T09:58:34.182Z,19.43
2022-10-24T10:01:06.355Z,19.47
2022-10-24T10:03:36.243Z,19.53
2022-10-24T10:06:16.390Z,19.78
2022-10-24T10:08:51.899Z,19.62
2022-10-24T10:11:31.646Z,19.67
2022-10-24T10:14:04.809Z,19.58
2022-10-24T10:16:37.450Z,19.59
2022-10-24T10:19:15.010Z,19.71
2022-10-24T10:22:02.192Z,19.60
2022-10-24T10:24:40.200Z,19.74
2022-10-24T10:27:32.417Z,19.86
2022-10-24T10:30:19.564Z,19.86
2022-10-24T10:33:07.179Z,19.89
2022-10-24T10:35:44.330Z,19.78
2022-10-24T10:38:37.401Z,19.85
2022-10-24T10:41:17.483Z,19.82
2022-10-24T10:43:55.030Z,19.82
2022-10-24T10:46:34.110Z,19.75
2022-10-24T10:49:19.157Z,19.82
2022-10-24T10:51:52.890Z,19.86
2022-10-24T10:54:38.481Z,19.72
2022-10-24T10:57:13.210Z,19.66
2022-10-24T10:59:53.605Z,19.83
2022-10-24T11:02:53.179Z,19.62
2022-10-24T11:05:34.320Z,19.81
2022-10-24T11:08:14.789Z,19.67
2022-10-24T11:10:53.329Z,19.60
2022-10-24T11:13:27.669Z,19.61
2022-10-24T11:16:00.781Z,19.74
2022-10-24T11:18:36.140Z,19.57
2022-10-24T11:21:08.390Z,19.73
2022-10-24T11:26:18.939Z,19.78
2022-10-24T11:28:55.420Z,19.58
2022-10-24T11:31:27.891Z,19.60
2022-10-24T11:34:04.830Z,19.55
2022-10-24T11:36:41.529Z,19.73
2022-10-24T11:39:18.210Z,19.57
2022-10-24T11:41:51.850Z,19.79
2022-10-24T11:44:32.770Z,19.57
2022-10-24T11:47:12.150Z,19.67
2022-10-24T11:49:47.160Z,19.56
2022-10-24T11:52:23.660Z,19.75
2022-10-24T11:54:57.951Z,19.61
2022-10-24T11:57:30.162Z,19.66
2022-10-24T12:00:00.155Z,19.68
2022-10-24T12:03:13.909Z,19.76
2022-10-24T12:06:14.610Z,19.64
2022-10-24T12:09:11.769Z,19.85
2022-10-24T12:12:10.152Z,19.87
2022-10-24T12:15:01.790Z,19.86
2022-10-24T12:17:57.281Z,19.74
2022-10-24T12:20:28.200Z,19.63
2022-10-24T12:23:01.929Z,19.62
2022-10-24T12:25:34.280Z,19.71
2022-10-24T12:28:04.759Z,19.99
2022-10-24T12:30:35.340Z,19.84
2022-10-24T12:33:12.970Z,19.87
2022-10-24T12:35:59.579Z,19.83
2022-10-24T12:39:07.674Z,19.79
2022-10-24T12:41:47.223Z,19.73
2022-10-24T12:44:41.464Z,19.78
2022-10-24T12:47:35.123Z,19.79
2022-10-24T12:50:40.396Z,19.82
2022-10-24T12:53:37.340Z,19.80
2022-10-24T12:56:23.203Z,19.80
2022-10-24T12:59:04.560Z,19.77
2022-10-24T13:01:37.066Z,19.90
2022-10-24T13:04:34.567Z,19.88
2022-10-24T13:07:39.079Z,19.84
2022-10-24T13:10:42.671Z,19.94
2022-10-24T13:13:42.955Z,19.91
2022-10-24T13:16:22.010Z,19.94
2022-10-24T13:19:15.220Z,19.87
2022-10-24T13:21:49.774Z,19.91
2022-10-24T13:24:37.221Z,19.83
2022-10-24T13:27:29.320Z,19.93
2022-10-24T13:30:23.419Z,19.81
2022-10-24T13:33:13.511Z,19.97
2022-10-24T13:35:44.659Z,19.88
2022-10-24T13:38:16.059Z,19.97
2022-10-24T13:40:46.450Z,19.83
2022-10-24T13:43:19.791Z,20.02
2022-10-24T13:45:56.919Z,19.96
2022-10-24T13:48:30.729Z,19.98
2022-10-24T13:51:07.353Z,20.10
2022-10-24T13:53:47.984Z,20.06
2022-10-24T13:56:16.929Z,20.24
2022-10-24T13:58:46.925Z,19.91
2022-10-24T14:01:21.718Z,20.01
2022-10-24T14:03:53.634Z,19.81
2022-10-24T14:06:27.605Z,19.93
2022-10-24T14:09:06.454Z,19.91
2022-10-24T14:11:41.775Z,19.94
2022-10-24T14:14:29.985Z,20.00
2022-10-24T14:17:23.655Z,20.01
2022-10-24T14:19:58.715Z,20.02
2022-10-24T14:22:30.449Z,19.73
2022-10-24T14:24:59.726Z,19.99
2022-10-24T14:27:28.674Z,19.90
2022-10-24T14:30:03.231Z,19.91
2022-10-24T14:32:33.396Z,19.91
2022-10-24T14:35:03.889Z,19.80
2022-10-24T14:37:40.788Z,19.71
2022-10-24T14:40:17.910Z,19.65
2022-10-24T14:42:48.475Z,19.84
2022-10-24T14:45:25.598Z,19.85
2022-10-24T14:47:55.685Z,19.60
2022-10-24T14:50:44.034Z,19.96
2022-10-24T14:53:26.324Z,19.64
2022-10-24T14:55:56.985Z,19.92
2022-10-24T14:58:28.404Z,19.67
2022-10-24T15:00:58.456Z,19.90
2022-10-24T15:03:28.800Z,19.89
2022-10-24T15:06:11.095Z,19.91
2022-10-24T15:11:25.328Z,19.84
2022-10-24T15:14:06.236Z,19.75
2022-10-24T15:16:39.225Z,19.86
2022-10-24T15:19:14.165Z,19.82
2022-10-24T15:21:45.975Z,19.83
2022-10-24T15:24:23.287Z,19.81
2022-10-24T15:26:52.795Z,19.75
2022-10-24T15:29:26.726Z,19.84
2022-10-24T15:31:56.795Z,19.94
2022-10-24T15:34:27.686Z,19.97
2022-10-24T15:36:58.375Z,19.94
2022-10-24T15:39:27.505Z,19.94
2022-10-24T15:41:56.826Z,19.64
2022-10-24T15:44:27.145Z,19.86
2022-10-24T15:46:56.496Z,19.84
2022-10-24T15:49:29.424Z,19.77
2022-10-24T15:52:00.947Z,19.68
2022-10-24T15:54:30.105Z,19.57
2022-10-24T15:57:02.880Z,19.83
2022-10-24T15:59:34.416Z,19.63
2022-10-24T16:02:03.942Z,19.67
2022-10-24T16:04:34.934Z,19.62
2022-10-24T16:07:06.181Z,19.55
2022-10-24T16:09:35.106Z,19.74
2022-10-24T16:12:05.605Z,19.84
2022-10-24T16:14:35.035Z,19.84
2022-10-24T16:17:04.796Z,19.75
2022-10-24T16:19:35.594Z,19.70
2022-10-24T16:22:07.895Z,19.65
2022-10-24T16:24:36.984Z,19.75
2022-10-24T16:27:05.995Z,19.52
2022-10-24T16:29:34.726Z,19.54
2022-10-24T16:32:04.504Z,19.75
2022-10-24T16:34:34.406Z,19.54
2022-10-24T16:37:05.032Z,19.54
2022-10-24T16:39:34.434Z,19.38
2022-10-24T16:42:05.670Z,19.64
2022-10-24T16:44:37.244Z,19.52
2022-10-24T16:47:06.265Z,19.67
2022-10-24T16:49:40.625Z,19.38
2022-10-24T16:52:12.146Z,19.34
2022-10-24T16:54:41.575Z,19.24
2022-10-24T16:57:10.244Z,19.30
2022-10-24T16:59:39.005Z,19.30
2022-10-24T17:02:08.811Z,19.52
2022-10-24T17:04:43.471Z,19.40
2022-10-24T17:07:14.895Z,19.25
2022-10-24T17:09:44.616Z,19.39
2022-10-24T17:12:15.245Z,19.49
2022-10-24T17:14:44.075Z,19.25
2022-10-24T17:17:13.031Z,19.26
2022-10-24T17:19:42.965Z,19.43
2022-10-24T17:22:20.441Z,19.33
2022-10-24T17:24:51.295Z,19.30
2022-10-24T17:27:23.546Z,19.27
2022-10-24T17:29:52.503Z,19.14
2022-10-24T17:32:21.546Z,19.17
2022-10-24T17:34:52.744Z,19.16
2022-10-24T17:37:32.604Z,19.32
2022-10-24T17:40:08.575Z,19.10
2022-10-24T17:42:42.063Z,19.29
2022-10-24T17:45:16.676Z,19.18
2022-10-24T17:47:48.252Z,19.28
2022-10-24T17:50:20.235Z,19.05
2022-10-24T17:52:52.953Z,19.09
2022-10-24T17:58:13.525Z,19.10
2022-10-24T18:00:45.722Z,19.16
2022-10-24T18:03:17.355Z,19.18
2022-10-24T18:05:49.367Z,19.15
2022-10-24T18:08:20.669Z,19.14
2022-10-24T18:10:50.476Z,19.06
2022-10-24T18:13:21.621Z,19.11
2022-10-24T18:15:50.875Z,19.13
2022-10-24T18:18:23.115Z,19.11
2022-10-24T18:20:52.154Z,19.32
2022-10-24T18:23:22.387Z,19.18
2022-10-24T18:25:50.974Z,18.85
2022-10-24T18:28:19.535Z,17.71
2022-10-24T18:30:48.065Z,18.08
2022-10-24T18:33:16.674Z,18.71
2022-10-24T18:35:45.311Z,18.73
2022-10-24T18:38:13.855Z,18.98
2022-10-24T18:40:44.524Z,18.83
2022-10-24T18:43:14.324Z,19.04
2022-10-24T18:45:43.794Z,19.07
2022-10-24T18:48:13.355Z,18.89
2022-10-24T18:50:42.156Z,18.94
2022-10-24T18:53:27.167Z,18.95
2022-10-24T18:56:03.794Z,19.20
2022-10-24T18:58:32.977Z,19.06
2022-10-24T19:01:02.421Z,19.13
2022-10-24T19:03:37.410Z,19.18
2022-10-24T19:06:19.024Z,18.97
2022-10-24T19:08:48.328Z,19.07
2022-10-24T19:11:19.944Z,19.10
2022-10-24T19:13:48.774Z,19.01
2022-10-24T19:16:22.165Z,19.12
2022-10-24T19:18:55.631Z,19.18
2022-10-24T19:21:32.121Z,18.67
2022-10-24T19:24:02.440Z,17.41
2022-10-24T19:26:32.801Z,18.20
2022-10-24T19:29:04.868Z,19.40
2022-10-24T19:31:35.253Z,19.74
2022-10-24T19:34:18.220Z,20.04
2022-10-24T19:36:48.869Z,20.08
2022-10-24T19:39:17.588Z,20.07
2022-10-24T19:41:47.605Z,20.29
2022-10-24T19:44:16.735Z,20.27
2022-10-24T19:46:45.464Z,20.26
2022-10-24T19:49:16.501Z,20.46
2022-10-24T19:51:45.572Z,20.43
2022-10-24T19:54:14.525Z,20.25
2022-10-24T19:56:43.285Z,20.42
2022-10-24T19:59:13.530Z,20.26
2022-10-24T20:01:43.883Z,20.36
2022-10-24T20:04:13.415Z,20.23
2022-10-24T20:06:42.685Z,20.31
2022-10-24T20:09:12.995Z,20.47
2022-10-24T20:11:46.925Z,20.45
2022-10-24T20:14:17.816Z,20.43
2022-10-24T20:16:49.318Z,20.33
2022-10-24T20:19:17.995Z,20.18
2022-10-24T20:21:47.274Z,20.12
2022-10-24T20:24:15.944Z,20.19
2022-10-24T20:26:44.944Z,20.15
2022-10-24T20:29:15.519Z,20.31
2022-10-24T20:31:50.295Z,20.42
2022-10-24T20:34:19.236Z,20.44
2022-10-24T20:36:50.619Z,20.43
2022-10-24T20:39:21.423Z,20.42
2022-10-24T20:41:53.387Z,20.53
2022-10-24T20:44:23.182Z,20.55
2022-10-24T20:46:57.006Z,20.54
2022-10-24T20:49:26.055Z,20.30
2022-10-24T20:51:55.446Z,20.41
2022-10-24T20:54:24.720Z,20.53
2022-10-24T20:56:55.600Z,20.44
2022-10-24T20:59:25.087Z,20.29
2022-10-24T21:01:55.601Z,20.36
2022-10-24T21:04:24.964Z,20.19
2022-10-24T21:06:54.047Z,20.13
2022-10-24T21:09:22.627Z,20.32
2022-10-24T21:11:51.520Z,20.42
2022-10-24T21:14:21.017Z,20.43
2022-10-24T21:16:49.903Z,20.45
2022-10-24T21:19:21.304Z,20.43
2022-10-24T21:21:50.301Z,20.27
2022-10-24T21:24:26.389Z,20.46
2022-10-24T21:26:57.920Z,20.44
2022-10-24T21:29:34.535Z,20.30
2022-10-24T21:32:05.706Z,20.43
2022-10-24T21:34:36.010Z,20.26
2022-10-24T21:37:05.629Z,20.44
2022-10-24T21:39:34.235Z,20.42
2022-10-24T21:42:03.319Z,20.33
2022-10-24T21:44:31.964Z,20.40
2022-10-24T21:47:00.647Z,20.42
2022-10-24T21:49:29.623Z,20.41
2022-10-24T21:52:00.610Z,20.42
2022-10-24T21:54:30.344Z,20.42
2022-10-24T21:56:58.845Z,20.40
2022-10-24T21:59:27.325Z,20.32
2022-10-24T22:01:57.027Z,20.40
2022-10-24T22:04:26.014Z,20.40
2022-10-24T22:06:55.124Z,20.38
2022-10-24T22:09:25.275Z,20.37
2022-10-24T22:11:58.058Z,20.34
2022-10-24T22:14:27.438Z,20.33
2022-10-24T22:16:56.032Z,20.35
2022-10-24T22:19:24.695Z,20.35
2022-10-24T22:21:53.424Z,20.34
2022-10-24T22:24:24.314Z,20.34
2022-10-24T22:26:54.804Z,20.32
2022-10-24T22:29:25.375Z,20.31
2022-10-24T22:31:55.284Z,20.31
2022-10-24T22:34:26.585Z,20.31
2022-10-24T22:37:05.774Z,20.32
2022-10-24T22:39:35.230Z,20.30
2022-10-24T22:42:07.417Z,20.30
2022-10-24T22:44:37.005Z,20.27
2022-10-24T22:47:37.995Z,20.28
2022-10-24T22:50:21.885Z,20.28
2022-10-24T22:52:50.976Z,20.21
2022-10-24T22:55:26.525Z,20.25
2022-10-24T22:57:56.799Z,20.24
2022-10-24T23:00:26.214Z,20.23
2022-10-24T23:03:03.394Z,20.22
2022-10-24T23:05:46.252Z,20.21
2022-10-24T23:08:27.744Z,20.14
2022-10-24T23:10:59.364Z,20.20
2022-10-24T23:13:38.065Z,20.20
2022-10-24T23:16:24.145Z,20.19
2022-10-24T23:18:54.161Z,20.18
2022-10-24T23:21:33.874Z,20.17
2022-10-24T23:24:03.484Z,20.17
2022-10-24T23:26:40.456Z,20.05
2022-10-24T23:29:21.656Z,20.27
2022-10-24T23:31:51.934Z,20.26
2022-10-24T23:34:25.486Z,20.21
2022-10-24T23:37:00.864Z,20.19
2022-10-24T23:39:38.035Z,20.13
2022-10-24T23:42:24.424Z,20.14
2022-10-24T23:44:58.075Z,20.10
2022-10-24T23:47:58.234Z,20.13
2022-10-24T23:50:41.195Z,20.13
2022-10-24T23:53:43.437Z,20.10
2022-10-24T23:56:37.625Z,20.09
2022-10-24T23:59:10.404Z,20.06
